sensor_id;sensor_type;location;lat;lon;timestamp;pressure;altitude;pressure_sealevel;temperature;humidity
58243;BME280;50118;53.232;8.252;2024-03-07T00:00:14;102718.09;;;2.07;100.00
58243;BME280;50118;53.232;8.252;2024-03-07T00:02:45;102723.34;;;2.07;100.00
58243;BME280;50118;53.232;8.252;2024-03-07T00:05:11;102717.34;;;2.02;100.00
58243;BME280;50118;53.232;8.252;2024-03-07T00:07:40;102714.66;;;2.05;100.00
58243;BME280;50118;53.232;8.252;2024-03-07T00:10:06;102725.88;;;2.12;100.00
58243;BME280;50118;53.232;8.252;2024-03-07T00:12:34;102717.19;;;2.08;100.00
58243;BME280;50118;53.232;8.252;2024-03-07T00:15:01;102718.09;;;2.07;100.00
58243;BME280;50118;53.232;8.252;2024-03-07T00:17:27;102725.25;;;2.02;100.00
58243;BME280;50118;53.232;8.252;2024-03-07T00:19:52;102719.31;;;1.94;100.00
58243;BME280;50118;53.232;8.252;2024-03-07T00:22:18;102718.59;;;1.89;100.00
58243;BME280;50118;53.232;8.252;2024-03-07T00:24:43;102725.28;;;2.00;100.00
58243;BME280;50118;53.232;8.252;2024-03-07T00:27:12;102716.69;;;1.94;100.00
58243;BME280;50118;53.232;8.252;2024-03-07T00:29:40;102721.72;;;2.03;100.00
58243;BME280;50118;53.232;8.252;2024-03-07T00:32:06;102723.34;;;2.07;100.00
58243;BME280;50118;53.232;8.252;2024-03-07T00:34:31;102726.91;;;2.06;100.00
58243;BME280;50118;53.232;8.252;2024-03-07T00:36:57;102722.84;;;1.94;100.00
58243;BME280;50118;53.232;8.252;2024-03-07T00:39:24;102718.25;;;2.01;100.00
58243;BME280;50118;53.232;8.252;2024-03-07T00:41:50;102722.66;;;2.00;100.00
58243;BME280;50118;53.232;8.252;2024-03-07T00:44:15;102717.41;;;2.00;100.00
58243;BME280;50118;53.232;8.252;2024-03-07T00:46:41;102717.34;;;2.02;100.00
58243;BME280;50118;53.232;8.252;2024-03-07T00:49:07;102722.41;;;2.10;100.00
58243;BME280;50118;53.232;8.252;2024-03-07T00:51:32;102716.53;;;2.00;100.00
58243;BME280;50118;53.232;8.252;2024-03-07T00:53:58;102713.88;;;2.01;100.00
58243;BME280;50118;53.232;8.252;2024-03-07T00:56:23;102713.78;;;2.04;100.00
58243;BME280;50118;53.232;8.252;2024-03-07T00:58:50;102707.50;;;2.10;100.00
58243;BME280;50118;53.232;8.252;2024-03-07T01:01:16;102709.38;;;2.05;100.00
58243;BME280;50118;53.232;8.252;2024-03-07T01:03:42;102704.13;;;2.05;100.00
58243;BME280;50118;53.232;8.252;2024-03-07T01:06:08;102707.69;;;2.02;100.00
58243;BME280;50118;53.232;8.252;2024-03-07T01:08:35;102706.09;;;1.97;100.00
58243;BME280;50118;53.232;8.252;2024-03-07T01:11:02;102711.97;;;2.07;100.00
58243;BME280;50118;53.232;8.252;2024-03-07T01:13:35;102700.91;;;1.94;100.00
58243;BME280;50118;53.232;8.252;2024-03-07T01:16:01;102705.28;;;1.95;100.00
58243;BME280;50118;53.232;8.252;2024-03-07T01:18:27;102709.72;;;1.93;100.00
58243;BME280;50118;53.232;8.252;2024-03-07T01:20:53;102702.59;;;1.98;100.00
58243;BME280;50118;53.232;8.252;2024-03-07T01:23:18;102696.00;;;1.81;100.00
58243;BME280;50118;53.232;8.252;2024-03-07T01:25:43;102688.94;;;1.83;100.00
58243;BME280;50118;53.232;8.252;2024-03-07T01:28:09;102697.75;;;1.82;100.00
58243;BME280;50118;53.232;8.252;2024-03-07T01:30:38;102694.25;;;1.80;100.00
58243;BME280;50118;53.232;8.252;2024-03-07T01:33:03;102696.00;;;1.81;100.00
58243;BME280;50118;53.232;8.252;2024-03-07T01:35:29;102700.47;;;1.78;100.00
58243;BME280;50118;53.232;8.252;2024-03-07T01:37:54;102694.41;;;1.76;100.00
58243;BME280;50118;53.232;8.252;2024-03-07T01:40:20;102695.41;;;1.70;100.00
58243;BME280;50118;53.232;8.252;2024-03-07T01:42:50;102700.56;;;1.75;100.00
58243;BME280;50118;53.232;8.252;2024-03-07T01:45:16;102694.53;;;1.71;100.00
58243;BME280;50118;53.232;8.252;2024-03-07T01:47:45;102697.44;;;1.60;100.00
58243;BME280;50118;53.232;8.252;2024-03-07T01:50:10;102694.63;;;1.66;100.00
58243;BME280;50118;53.232;8.252;2024-03-07T01:52:40;102690.25;;;1.67;100.00
58243;BME280;50118;53.232;8.252;2024-03-07T01:55:07;102693.91;;;1.60;100.00
58243;BME280;50118;53.232;8.252;2024-03-07T01:57:32;102680.06;;;1.53;100.00
58243;BME280;50118;53.232;8.252;2024-03-07T02:00:00;102685.19;;;1.59;100.00
58243;BME280;50118;53.232;8.252;2024-03-07T02:02:29;102678.38;;;1.52;100.00
58243;BME280;50118;53.232;8.252;2024-03-07T02:04:55;102677.66;;;1.45;100.00
58243;BME280;50118;53.232;8.252;2024-03-07T02:07:20;102680.50;;;1.36;100.00
58243;BME280;50118;53.232;8.252;2024-03-07T02:09:46;102667.47;;;1.33;100.00
58243;BME280;50118;53.232;8.252;2024-03-07T02:12:11;102665.31;;;1.15;100.00
58243;BME280;50118;53.232;8.252;2024-03-07T02:14:37;102661.16;;;1.04;100.00
58243;BME280;50118;53.232;8.252;2024-03-07T02:17:02;102666.78;;;0.89;100.00
58243;BME280;50118;53.232;8.252;2024-03-07T02:19:29;102663.47;;;0.81;100.00
58243;BME280;50118;53.232;8.252;2024-03-07T02:21:57;102663.75;;;0.68;100.00
58243;BME280;50118;53.232;8.252;2024-03-07T02:24:23;102658.69;;;0.59;100.00
58243;BME280;50118;53.232;8.252;2024-03-07T02:26:49;102653.72;;;0.47;100.00
58243;BME280;50118;53.232;8.252;2024-03-07T02:29:14;102656.34;;;0.47;100.00
58243;BME280;50118;53.232;8.252;2024-03-07T02:31:40;102662.31;;;0.53;100.00
58243;BME280;50118;53.232;8.252;2024-03-07T02:34:07;102664.31;;;0.41;100.00
58243;BME280;50118;53.232;8.252;2024-03-07T02:36:35;102668.69;;;0.42;100.00
58243;BME280;50118;53.232;8.252;2024-03-07T02:39:00;102664.66;;;0.25;100.00
58243;BME280;50118;53.232;8.252;2024-03-07T02:41:26;102669.25;;;0.14;100.00
58243;BME280;50118;53.232;8.252;2024-03-07T02:43:52;102660.69;;;0.06;100.00
58243;BME280;50118;53.232;8.252;2024-03-07T02:46:18;102666.84;;;0.02;100.00
58243;BME280;50118;53.232;8.252;2024-03-07T02:48:44;102670.44;;;-0.03;100.00
58243;BME280;50118;53.232;8.252;2024-03-07T02:51:10;102665.16;;;0.01;100.00
58243;BME280;50118;53.232;8.252;2024-03-07T02:53:36;102667.88;;;-0.06;100.00
58243;BME280;50118;53.232;8.252;2024-03-07T02:56:04;102675.63;;;0.01;100.00
58243;BME280;50118;53.232;8.252;2024-03-07T02:58:33;102678.97;;;0.09;100.00
58243;BME280;50118;53.232;8.252;2024-03-07T03:00:59;102680.38;;;0.25;100.00
58243;BME280;50118;53.232;8.252;2024-03-07T03:03:26;102678.16;;;0.05;100.00
58243;BME280;50118;53.232;8.252;2024-03-07T03:05:51;102680.47;;;-0.25;100.00
58243;BME280;50118;53.232;8.252;2024-03-07T03:08:17;102673.47;;;-0.26;100.00
58243;BME280;50118;53.232;8.252;2024-03-07T03:10:43;102671.13;;;-0.40;100.00
58243;BME280;50118;53.232;8.252;2024-03-07T03:13:09;102660.81;;;-0.49;100.00
58243;BME280;50118;53.232;8.252;2024-03-07T03:15:35;102659.69;;;-0.34;100.00
58243;BME280;50118;53.232;8.252;2024-03-07T03:18:04;102653.75;;;-0.44;100.00
58243;BME280;50118;53.232;8.252;2024-03-07T03:20:31;102640.59;;;-0.41;100.00
58243;BME280;50118;53.232;8.252;2024-03-07T03:23:00;102638.03;;;-0.44;100.00
58243;BME280;50118;53.232;8.252;2024-03-07T03:25:28;102637.69;;;-0.25;100.00
58243;BME280;50118;53.232;8.252;2024-03-07T03:27:53;102636.75;;;-0.23;100.00
58243;BME280;50118;53.232;8.252;2024-03-07T03:30:20;102639.56;;;-0.32;100.00
58243;BME280;50118;53.232;8.252;2024-03-07T03:32:49;102642.94;;;-0.25;100.00
58243;BME280;50118;53.232;8.252;2024-03-07T03:35:15;102631.78;;;-0.36;100.00
58243;BME280;50118;53.232;8.252;2024-03-07T03:37:42;102640.19;;;-0.19;100.00
58243;BME280;50118;53.232;8.252;2024-03-07T03:40:08;102639.50;;;-0.27;100.00
58243;BME280;50118;53.232;8.252;2024-03-07T03:42:38;102633.38;;;-0.29;100.00
58243;BME280;50118;53.232;8.252;2024-03-07T03:45:05;102640.13;;;-0.16;100.00
58243;BME280;50118;53.232;8.252;2024-03-07T03:47:35;102633.19;;;-0.17;100.00
58243;BME280;50118;53.232;8.252;2024-03-07T03:52:30;102640.53;;;0.08;100.00
58243;BME280;50118;53.232;8.252;2024-03-07T03:54:56;102635.50;;;-0.02;100.00
58243;BME280;50118;53.232;8.252;2024-03-07T03:57:22;102640.06;;;-0.11;100.00
58243;BME280;50118;53.232;8.252;2024-03-07T03:59:48;102638.91;;;0.04;100.00
58243;BME280;50118;53.232;8.252;2024-03-07T04:02:13;102640.66;;;0.02;100.00
58243;BME280;50118;53.232;8.252;2024-03-07T04:04:39;102631.13;;;-0.01;100.00
58243;BME280;50118;53.232;8.252;2024-03-07T04:07:05;102640.00;;;-0.08;100.00
58243;BME280;50118;53.232;8.252;2024-03-07T04:09:31;102640.66;;;0.02;100.00
58243;BME280;50118;53.232;8.252;2024-03-07T04:11:57;102642.34;;;0.06;100.00
58243;BME280;50118;53.232;8.252;2024-03-07T04:14:23;102635.25;;;0.11;100.00
58243;BME280;50118;53.232;8.252;2024-03-07T04:16:49;102627.44;;;0.08;100.00
58243;BME280;50118;53.232;8.252;2024-03-07T04:19:15;102643.06;;;0.14;100.00
58243;BME280;50118;53.232;8.252;2024-03-07T04:21:40;102634.31;;;0.13;100.00
58243;BME280;50118;53.232;8.252;2024-03-07T04:24:07;102638.81;;;0.07;100.00
58243;BME280;50118;53.232;8.252;2024-03-07T04:26:32;102641.44;;;0.07;100.00
58243;BME280;50118;53.232;8.252;2024-03-07T04:28:58;102638.63;;;0.16;100.00
58243;BME280;50118;53.232;8.252;2024-03-07T04:31:23;102636.94;;;0.13;100.00
58243;BME280;50118;53.232;8.252;2024-03-07T04:33:49;102629.63;;;0.29;100.00
58243;BME280;50118;53.232;8.252;2024-03-07T04:36:16;102630.94;;;0.07;100.00
58243;BME280;50118;53.232;8.252;2024-03-07T04:38:42;102633.34;;;0.19;100.00
58243;BME280;50118;53.232;8.252;2024-03-07T04:41:13;102628.09;;;0.19;100.00
58243;BME280;50118;53.232;8.252;2024-03-07T04:43:40;102629.47;;;0.35;100.00
58243;BME280;50118;53.232;8.252;2024-03-07T04:46:07;102623.53;;;0.27;100.00
58243;BME280;50118;53.232;8.252;2024-03-07T04:48:33;102626.97;;;0.31;100.00
58243;BME280;50118;53.232;8.252;2024-03-07T04:50:59;102631.00;;;0.46;100.00
58243;BME280;50118;53.232;8.252;2024-03-07T04:53:24;102630.03;;;0.51;100.00
58243;BME280;50118;53.232;8.252;2024-03-07T04:55:50;102623.91;;;0.51;100.00
58243;BME280;50118;53.232;8.252;2024-03-07T04:58:17;102627.63;;;0.41;100.00
58243;BME280;50118;53.232;8.252;2024-03-07T05:00:42;102625.97;;;0.36;100.00
58243;BME280;50118;53.232;8.252;2024-03-07T05:03:08;102629.22;;;0.48;100.00
58243;BME280;50118;53.232;8.252;2024-03-07T05:05:35;102630.06;;;0.50;100.00
58243;BME280;50118;53.232;8.252;2024-03-07T05:08:00;102630.06;;;0.50;100.00
58243;BME280;50118;53.232;8.252;2024-03-07T05:10:25;102623.84;;;0.54;100.00
58243;BME280;50118;53.232;8.252;2024-03-07T05:12:55;102628.31;;;0.49;100.00
58243;BME280;50118;53.232;8.252;2024-03-07T05:15:20;102629.81;;;0.61;100.00
58243;BME280;50118;53.232;8.252;2024-03-07T05:17:46;102629.78;;;0.62;100.00
58243;BME280;50118;53.232;8.252;2024-03-07T05:20:11;102628.91;;;0.62;100.00
58243;BME280;50118;53.232;8.252;2024-03-07T05:22:38;102633.41;;;0.57;100.00
58243;BME280;50118;53.232;8.252;2024-03-07T05:25:12;102642.06;;;0.60;100.00
58243;BME280;50118;53.232;8.252;2024-03-07T05:27:38;102637.56;;;0.65;100.00
58243;BME280;50118;53.232;8.252;2024-03-07T05:30:05;102634.19;;;0.60;100.00
58243;BME280;50118;53.232;8.252;2024-03-07T05:32:31;102630.66;;;0.61;100.00
58243;BME280;50118;53.232;8.252;2024-03-07T05:34:59;102630.66;;;0.61;100.00
58243;BME280;50118;53.232;8.252;2024-03-07T05:37:24;102635.78;;;0.67;100.00
58243;BME280;50118;53.232;8.252;2024-03-07T05:39:51;102636.47;;;0.76;100.00
58243;BME280;50118;53.232;8.252;2024-03-07T05:42:17;102641.81;;;0.71;100.00
58243;BME280;50118;53.232;8.252;2024-03-07T05:44:44;102647.84;;;0.74;100.00
58243;BME280;50118;53.232;8.252;2024-03-07T05:47:10;102640.81;;;0.77;100.00
58243;BME280;50118;53.232;8.252;2024-03-07T05:49:36;102646.16;;;0.73;100.00
58243;BME280;50118;53.232;8.252;2024-03-07T05:52:04;102645.97;;;0.80;100.00
58243;BME280;50118;53.232;8.252;2024-03-07T05:54:32;102641.44;;;0.88;100.00
58243;BME280;50118;53.232;8.252;2024-03-07T05:56:57;102645.63;;;0.95;100.00
58243;BME280;50118;53.232;8.252;2024-03-07T05:59:23;102641.47;;;0.86;100.00
58243;BME280;50118;53.232;8.252;2024-03-07T06:01:48;102643.91;;;0.94;100.00
58243;BME280;50118;53.232;8.252;2024-03-07T06:04:16;102645.72;;;0.92;100.00
58243;BME280;50118;53.232;8.252;2024-03-07T06:06:41;102653.41;;;1.00;100.00
58243;BME280;50118;53.232;8.252;2024-03-07T06:09:08;102664.94;;;0.92;100.00
58243;BME280;50118;53.232;8.252;2024-03-07T06:11:38;102649.28;;;0.88;100.00
58243;BME280;50118;53.232;8.252;2024-03-07T06:14:05;102652.53;;;0.99;100.00
58243;BME280;50118;53.232;8.252;2024-03-07T06:16:37;102654.34;;;0.97;100.00
58243;BME280;50118;53.232;8.252;2024-03-07T06:19:04;102659.38;;;1.06;100.00
58243;BME280;50118;53.232;8.252;2024-03-07T06:21:32;102648.88;;;1.06;100.00
58243;BME280;50118;53.232;8.252;2024-03-07T06:23:58;102662.44;;;1.24;100.00
58243;BME280;50118;53.232;8.252;2024-03-07T06:26:29;102659.00;;;1.22;100.00
58243;BME280;50118;53.232;8.252;2024-03-07T06:29:07;102657.03;;;1.30;100.00
58243;BME280;50118;53.232;8.252;2024-03-07T06:31:39;102669.84;;;1.42;100.00
58243;BME280;50118;53.232;8.252;2024-03-07T06:34:05;102669.13;;;1.37;100.00
58243;BME280;50118;53.232;8.252;2024-03-07T06:36:32;102670.91;;;1.35;100.00
58243;BME280;50118;53.232;8.252;2024-03-07T06:38:58;102667.72;;;1.22;100.00
58243;BME280;50118;53.232;8.252;2024-03-07T06:41:23;102662.59;;;1.18;100.00
58243;BME280;50118;53.232;8.252;2024-03-07T06:43:50;102671.44;;;1.14;100.00
58243;BME280;50118;53.232;8.252;2024-03-07T06:46:18;102669.56;;;1.19;100.00
58243;BME280;50118;53.232;8.252;2024-03-07T06:48:45;102669.63;;;1.16;100.00
58243;BME280;50118;53.232;8.252;2024-03-07T06:51:11;102676.16;;;1.35;100.00
58243;BME280;50118;53.232;8.252;2024-03-07T06:53:36;102674.22;;;1.43;100.00
58243;BME280;50118;53.232;8.252;2024-03-07T06:56:02;102682.25;;;1.37;100.00
58243;BME280;50118;53.232;8.252;2024-03-07T06:58:28;102678.75;;;1.37;100.00
58243;BME280;50118;53.232;8.252;2024-03-07T07:00:54;102678.63;;;1.41;100.00
58243;BME280;50118;53.232;8.252;2024-03-07T07:03:22;102677.75;;;1.42;100.00
58243;BME280;50118;53.232;8.252;2024-03-07T07:05:49;102677.88;;;1.36;100.00
58243;BME280;50118;53.232;8.252;2024-03-07T07:08:15;102674.16;;;1.46;100.00
58243;BME280;50118;53.232;8.252;2024-03-07T07:10:41;102672.47;;;1.42;100.00
58243;BME280;50118;53.232;8.252;2024-03-07T07:13:08;102677.59;;;1.48;100.00
58243;BME280;50118;53.232;8.252;2024-03-07T07:15:34;102678.25;;;1.57;100.00
58243;BME280;50118;53.232;8.252;2024-03-07T07:18:02;102690.19;;;1.68;100.00
58243;BME280;50118;53.232;8.252;2024-03-07T07:20:28;102692.47;;;1.82;100.00
58243;BME280;50118;53.232;8.252;2024-03-07T07:22:54;102689.13;;;1.77;100.00
58243;BME280;50118;53.232;8.252;2024-03-07T07:25:22;102698.56;;;1.84;100.00
58243;BME280;50118;53.232;8.252;2024-03-07T07:27:50;102684.91;;;2.03;100.00
58243;BME280;50118;53.232;8.252;2024-03-07T07:30:21;102686.47;;;2.10;100.00
58243;BME280;50118;53.232;8.252;2024-03-07T07:32:52;102682.84;;;2.14;100.00
58243;BME280;50118;53.232;8.252;2024-03-07T07:35:19;102678.34;;;2.18;100.00
58243;BME280;50118;53.232;8.252;2024-03-07T07:37:46;102678.19;;;2.24;100.00
58243;BME280;50118;53.232;8.252;2024-03-07T07:40:17;102675.59;;;2.22;100.00
58243;BME280;50118;53.232;8.252;2024-03-07T07:42:44;102670.34;;;2.22;100.00
58243;BME280;50118;53.232;8.252;2024-03-07T07:45:13;102668.47;;;2.26;100.00
58243;BME280;50118;53.232;8.252;2024-03-07T07:47:39;102666.00;;;2.51;100.00
58243;BME280;50118;53.232;8.252;2024-03-07T07:50:07;102667.22;;;2.39;100.00
58243;BME280;50118;53.232;8.252;2024-03-07T07:52:41;102665.81;;;2.57;100.00
58243;BME280;50118;53.232;8.252;2024-03-07T07:55:07;102669.19;;;2.63;100.00
58243;BME280;50118;53.232;8.252;2024-03-07T07:57:43;102666.88;;;2.80;100.00
58243;BME280;50118;53.232;8.252;2024-03-07T08:00:20;102665.44;;;2.70;100.00
58243;BME280;50118;53.232;8.252;2024-03-07T08:02:55;102672.22;;;2.77;100.00
58243;BME280;50118;53.232;8.252;2024-03-07T08:05:23;102665.88;;;2.84;100.00
58243;BME280;50118;53.232;8.252;2024-03-07T08:07:54;102666.59;;;2.89;100.00
58243;BME280;50118;53.232;8.252;2024-03-07T08:10:20;102662.28;;;2.87;100.00
58243;BME280;50118;53.232;8.252;2024-03-07T08:12:48;102657.28;;;2.77;100.00
58243;BME280;50118;53.232;8.252;2024-03-07T08:15:14;102661.63;;;2.80;100.00
58243;BME280;50118;53.232;8.252;2024-03-07T08:17:44;102654.53;;;2.82;100.00
58243;BME280;50118;53.232;8.252;2024-03-07T08:20:15;102659.41;;;2.94;100.00
58243;BME280;50118;53.232;8.252;2024-03-07T08:22:42;102654.56;;;3.09;100.00
58243;BME280;50118;53.232;8.252;2024-03-07T08:25:12;102652.75;;;3.11;100.00
58243;BME280;50118;53.232;8.252;2024-03-07T08:27:39;102645.47;;;3.19;100.00
58243;BME280;50118;53.232;8.252;2024-03-07T08:30:07;102654.69;;;3.32;100.00
58243;BME280;50118;53.232;8.252;2024-03-07T08:32:36;102648.00;;;3.22;100.00
58243;BME280;50118;53.232;8.252;2024-03-07T08:35:03;102650.91;;;3.40;100.00
58243;BME280;50118;53.232;8.252;2024-03-07T08:37:35;102642.72;;;3.22;100.00
58243;BME280;50118;53.232;8.252;2024-03-07T08:40:02;102641.59;;;3.29;100.00
58243;BME280;50118;53.232;8.252;2024-03-07T08:42:37;102645.00;;;3.33;100.00
58243;BME280;50118;53.232;8.252;2024-03-07T08:45:04;102642.22;;;3.38;100.00
58243;BME280;50118;53.232;8.252;2024-03-07T08:47:37;102645.63;;;3.66;100.00
58243;BME280;50118;53.232;8.252;2024-03-07T08:50:04;102642.97;;;3.41;100.00
58243;BME280;50118;53.232;8.252;2024-03-07T08:52:36;102652.50;;;3.70;100.00
58243;BME280;50118;53.232;8.252;2024-03-07T08:55:03;102638.59;;;3.40;100.00
58243;BME280;50118;53.232;8.252;2024-03-07T08:57:30;102638.59;;;3.40;100.00
58243;BME280;50118;53.232;8.252;2024-03-07T08:59:56;102640.19;;;3.46;100.00
58243;BME280;50118;53.232;8.252;2024-03-07T09:02:21;102632.84;;;3.54;100.00
58243;BME280;50118;53.232;8.252;2024-03-07T09:04:47;102632.66;;;3.60;100.00
58243;BME280;50118;53.232;8.252;2024-03-07T09:07:12;102630.81;;;3.62;100.00
58243;BME280;50118;53.232;8.252;2024-03-07T09:09:42;102630.81;;;3.62;100.00
58243;BME280;50118;53.232;8.252;2024-03-07T09:12:11;102630.81;;;3.62;100.00
58243;BME280;50118;53.232;8.252;2024-03-07T09:14:37;102635.63;;;4.00;100.00
58243;BME280;50118;53.232;8.252;2024-03-07T09:17:03;102635.63;;;4.00;100.00
58243;BME280;50118;53.232;8.252;2024-03-07T09:19:30;102632.13;;;4.46;100.00
58243;BME280;50118;53.232;8.252;2024-03-07T09:21:56;102635.03;;;4.62;100.00
58243;BME280;50118;53.232;8.252;2024-03-07T09:24:21;102635.03;;;4.62;100.00
58243;BME280;50118;53.232;8.252;2024-03-07T09:26:51;102634.66;;;4.49;100.00
58243;BME280;50118;53.232;8.252;2024-03-07T09:29:17;102638.09;;;4.52;100.00
58243;BME280;50118;53.232;8.252;2024-03-07T09:31:44;102638.09;;;4.52;100.00
58243;BME280;50118;53.232;8.252;2024-03-07T09:34:10;102635.69;;;4.22;100.00
58243;BME280;50118;53.232;8.252;2024-03-07T09:36:38;102628.44;;;4.51;100.00
58243;BME280;50118;53.232;8.252;2024-03-07T09:39:04;102637.22;;;4.73;100.00
58243;BME280;50118;53.232;8.252;2024-03-07T09:41:31;102634.06;;;4.65;100.00
58243;BME280;50118;53.232;8.252;2024-03-07T09:43:57;102645.91;;;4.55;100.00
58243;BME280;50118;53.232;8.252;2024-03-07T09:46:25;102632.22;;;4.67;100.00
58243;BME280;50118;53.232;8.252;2024-03-07T09:48:51;102639.41;;;4.85;100.00
58243;BME280;50118;53.232;8.252;2024-03-07T09:51:20;102637.09;;;4.54;100.00
58243;BME280;50118;53.232;8.252;2024-03-07T09:53:49;102634.41;;;5.00;100.00
58243;BME280;50118;53.232;8.252;2024-03-07T09:56:17;102632.22;;;4.67;100.00
58243;BME280;50118;53.232;8.252;2024-03-07T09:58:49;102633.91;;;4.68;100.00
58243;BME280;50118;53.232;8.252;2024-03-07T10:01:15;102625.56;;;4.57;100.00
58243;BME280;50118;53.232;8.252;2024-03-07T10:03:43;102624.25;;;4.68;100.00
58243;BME280;50118;53.232;8.252;2024-03-07T10:06:10;102626.44;;;4.79;100.00
58243;BME280;50118;53.232;8.252;2024-03-07T10:08:36;102619.81;;;4.69;100.00
58243;BME280;50118;53.232;8.252;2024-03-07T10:11:02;102618.81;;;4.94;100.00
58243;BME280;50118;53.232;8.252;2024-03-07T10:13:28;102628.84;;;5.28;100.00
58243;BME280;50118;53.232;8.252;2024-03-07T10:15:56;102633.50;;;5.64;100.00
58243;BME280;50118;53.232;8.252;2024-03-07T10:18:25;102636.44;;;5.56;100.00
58243;BME280;50118;53.232;8.252;2024-03-07T10:20:56;102638.16;;;5.78;100.00
58243;BME280;50118;53.232;8.252;2024-03-07T10:23:22;102642.88;;;5.71;100.00
58243;BME280;50118;53.232;8.252;2024-03-07T10:25:48;102636.31;;;5.80;100.00
58243;BME280;50118;53.232;8.252;2024-03-07T10:28:18;102636.97;;;6.06;100.00
58243;BME280;50118;53.232;8.252;2024-03-07T10:30:47;102638.59;;;5.69;100.00
58243;BME280;50118;53.232;8.252;2024-03-07T10:33:17;102634.22;;;5.47;100.00
58243;BME280;50118;53.232;8.252;2024-03-07T10:35:47;102633.69;;;5.59;100.00
58243;BME280;50118;53.232;8.252;2024-03-07T10:38:14;102637.91;;;5.43;100.00
58243;BME280;50118;53.232;8.252;2024-03-07T10:40:40;102636.25;;;5.20;100.00
58243;BME280;50118;53.232;8.252;2024-03-07T10:43:10;102636.25;;;5.20;100.00
58243;BME280;50118;53.232;8.252;2024-03-07T10:45:47;102636.25;;;5.20;100.00
58243;BME280;50118;53.232;8.252;2024-03-07T10:48:13;102636.25;;;5.20;100.00
58243;BME280;50118;53.232;8.252;2024-03-07T10:53:32;102636.25;;;5.20;100.00
58243;BME280;50118;53.232;8.252;2024-03-07T11:01:31;102636.25;;;5.20;100.00
58243;BME280;50118;53.232;8.252;2024-03-07T11:03:59;102636.25;;;5.20;100.00
58243;BME280;50118;53.232;8.252;2024-03-07T11:06:25;102636.25;;;5.20;100.00
58243;BME280;50118;53.232;8.252;2024-03-07T11:08:52;102636.25;;;5.20;100.00
58243;BME280;50118;53.232;8.252;2024-03-07T11:11:17;102636.25;;;5.20;100.00
58243;BME280;50118;53.232;8.252;2024-03-07T11:13:45;102636.25;;;5.20;100.00
58243;BME280;50118;53.232;8.252;2024-03-07T11:16:12;102636.25;;;5.20;100.00
58243;BME280;50118;53.232;8.252;2024-03-07T11:18:40;102636.25;;;5.20;100.00
58243;BME280;50118;53.232;8.252;2024-03-07T11:21:05;102636.25;;;5.20;100.00
58243;BME280;50118;53.232;8.252;2024-03-07T11:23:33;102636.25;;;5.20;100.00
58243;BME280;50118;53.232;8.252;2024-03-07T11:26:04;102636.25;;;5.20;100.00
58243;BME280;50118;53.232;8.252;2024-03-07T11:28:33;102636.25;;;5.20;100.00
58243;BME280;50118;53.232;8.252;2024-03-07T11:33:37;102636.25;;;5.20;100.00
58243;BME280;50118;53.232;8.252;2024-03-07T11:36:10;102636.25;;;5.20;100.00
58243;BME280;50118;53.232;8.252;2024-03-07T11:38:47;102636.25;;;5.20;100.00
58243;BME280;50118;53.232;8.252;2024-03-07T11:41:13;102636.25;;;5.20;100.00
58243;BME280;50118;53.232;8.252;2024-03-07T11:43:40;102605.09;;;6.09;100.00
58243;BME280;50118;53.232;8.252;2024-03-07T11:46:08;102605.09;;;6.09;100.00
58243;BME280;50118;53.232;8.252;2024-03-07T11:48:42;102605.09;;;6.09;100.00
58243;BME280;50118;53.232;8.252;2024-03-07T11:51:17;102605.09;;;6.09;100.00
58243;BME280;50118;53.232;8.252;2024-03-07T11:53:43;102605.09;;;6.09;100.00
58243;BME280;50118;53.232;8.252;2024-03-07T11:56:09;102605.09;;;6.09;100.00
58243;BME280;50118;53.232;8.252;2024-03-07T11:58:41;102605.09;;;6.09;100.00
58243;BME280;50118;53.232;8.252;2024-03-07T12:01:09;102605.09;;;6.09;100.00
58243;BME280;50118;53.232;8.252;2024-03-07T12:03:36;102605.09;;;6.09;100.00
58243;BME280;50118;53.232;8.252;2024-03-07T12:06:03;102605.09;;;6.09;100.00
58243;BME280;50118;53.232;8.252;2024-03-07T12:08:29;102605.09;;;6.09;100.00
58243;BME280;50118;53.232;8.252;2024-03-07T12:10:55;102605.09;;;6.09;100.00
58243;BME280;50118;53.232;8.252;2024-03-07T12:13:22;102605.09;;;6.09;100.00
58243;BME280;50118;53.232;8.252;2024-03-07T12:15:48;102605.09;;;6.09;100.00
58243;BME280;50118;53.232;8.252;2024-03-07T12:18:22;102605.09;;;6.09;100.00
58243;BME280;50118;53.232;8.252;2024-03-07T12:20:48;102605.09;;;6.09;100.00
58243;BME280;50118;53.232;8.252;2024-03-07T12:23:21;102605.09;;;6.09;100.00
58243;BME280;50118;53.232;8.252;2024-03-07T12:26:01;102605.09;;;6.09;100.00
58243;BME280;50118;53.232;8.252;2024-03-07T12:28:27;102605.09;;;6.09;100.00
58243;BME280;50118;53.232;8.252;2024-03-07T12:30:55;102605.09;;;6.09;100.00
58243;BME280;50118;53.232;8.252;2024-03-07T12:33:22;102605.09;;;6.09;100.00
58243;BME280;50118;53.232;8.252;2024-03-07T12:35:51;102605.09;;;6.09;100.00
58243;BME280;50118;53.232;8.252;2024-03-07T12:38:21;102605.09;;;6.09;100.00
58243;BME280;50118;53.232;8.252;2024-03-07T12:41:04;102605.09;;;6.09;100.00
58243;BME280;50118;53.232;8.252;2024-03-07T12:43:39;102605.09;;;6.09;100.00
58243;BME280;50118;53.232;8.252;2024-03-07T12:46:07;102605.09;;;6.09;100.00
58243;BME280;50118;53.232;8.252;2024-03-07T12:48:37;102605.09;;;6.09;100.00
58243;BME280;50118;53.232;8.252;2024-03-07T12:51:04;102605.09;;;6.09;100.00
58243;BME280;50118;53.232;8.252;2024-03-07T12:53:30;102605.09;;;6.09;100.00
58243;BME280;50118;53.232;8.252;2024-03-07T12:55:56;102605.09;;;6.09;100.00
58243;BME280;50118;53.232;8.252;2024-03-07T12:58:22;102605.09;;;6.09;100.00
58243;BME280;50118;53.232;8.252;2024-03-07T13:00:51;102605.09;;;6.09;100.00
58243;BME280;50118;53.232;8.252;2024-03-07T13:03:17;102605.09;;;6.09;100.00